This is the latest recevied weather packets stored in our database for station/object KC4JIR. If no packets are shown the sender has not sent any weather packets the latest 1 day(s).
| Time | Temp. | Humidity | Pressure | Rain* | Wind** | Luminosity | Snow |
|---|---|---|---|---|---|---|---|
| 1778081731 | 26.11° C | 64% | 1014.5 hPa | 0 mm | - | 764 W/m² | - |
| 1778080218 | 23.89° C | 77% | 1014.7 hPa | 0 mm | - | 322 W/m² | - |
| 1778079308 | 22.78° C | 79% | 1014.5 hPa | 0 mm | - | 347 W/m² | - |
| 1778078400 | 22.22° C | 83% | 1014.3 hPa | 0 mm | - | 237 W/m² | - |
| 1778076587 | 21.67° C | 84% | 1013.9 hPa | 0 mm | - | 188 W/m² | - |
| 1778076283 | 21.11° C | 86% | 1013.9 hPa | 0 mm | - | 236 W/m² | - |
| 1778075677 | 20.56° C | 87% | 1014.2 hPa | 0 mm | - | 177 W/m² | - |
| 1778075373 | 20.56° C | 87% | 1014.1 hPa | 0 mm | - | 178 W/m² | - |
| 1778073555 | 19.44° C | 89% | 1013.9 hPa | 0 mm | - | 98 W/m² | - |
| 1778073251 | 19.44° C | 89% | 1013.8 hPa | 0 mm | - | 103 W/m² | - |
| 1778072041 | 18.89° C | 91% | 1013.5 hPa | 0 mm | - | 95 W/m² | - |
| 1778071739 | 18.89° C | 92% | 1013.8 hPa | 0 mm | - | 88 W/m² | - |
| 1778070225 | 17.78° C | 94% | 1013.7 hPa | 0 mm | - | 56 W/m² | - |
| 1778068712 | 16.67° C | 96% | 1013 hPa | 0 mm | - | 47 W/m² | - |
| 1778068108 | 16.11° C | 96% | 1012.9 hPa | 0 mm | - | 24 W/m² | - |
| 1778067504 | 16.11° C | 96% | 1012.7 hPa | 0 mm | - | 16 W/m² | - |
| 1778067201 | 16.11° C | 96% | 1012.8 hPa | 0 mm | - | 22 W/m² | - |
| 1778065081 | 15.56° C | 96% | 1012.2 hPa | 0 mm | - | 4 W/m² | - |
| 1778064173 | 15.56° C | 96% | 1011.7 hPa | 0 mm | - | 0 W/m² | - |
| 1778063870 | 15.56° C | 96% | 1011.8 hPa | 0 mm | - | 0 W/m² | - |
| 1778063265 | 15.56° C | 96% | 1012 hPa | 0 mm | - | 0 W/m² | - |
| 1778062963 | 15.56° C | 96% | 1011.9 hPa | 0 mm | - | 0 W/m² | - |
| 1778062356 | 15.56° C | 96% | 1011.7 hPa | 0 mm | - | 0 W/m² | - |
| 1778062054 | 15.56° C | 96% | 1011.7 hPa | 0 mm | - | 0 W/m² | - |
| 1778061752 | 15.56° C | 97% | 1011.8 hPa | 0 mm | - | 0 W/m² | - |
* Rain latest hour (hover to see other rain measurements)
** Current wind speed in m/s (hover to see current wind gust speed)